Reeders, Pennsylvania
Current Conditions -  °F | °C
As of 11:53 PM on Monday 20 Oct 2014 (Local Time) from KMPO Reporting Station
Overcast Overcast  
Wind Chill: 44°   Ceiling: 8000
Heat Index: 48°   Visibility: 10mi
Dew Point: 42°   Wind: 8mph
Humidity: 80%   Direction: 180°S
Pressure: 29.92"   Gusts: NA
Location:  41.02°N, 75.34°W
Report Text: KMPO 210353Z AUTO 18007KT 10SM SCT065 OVC080 09/06 A2992 RMK AO2 RAE35 SLP135 P0000 T00890056 TSNO
Loading
Personal Weather Stations






























Interactive Weather Map New forecast layout! Learn more

10-Day Weather Forecast

Advertisements
Track Severe Weather on mobile